Aérodrome :
LOGIN :

S'inscrire | Disclaimer

   EN    FR    IT 

 










Légende :    VFR   VFR Marginal   IFR   IFR Intensif   IFR Très Intensif
Visi : 
Plafond : 
>= 8 km
>= 3000ft
5 à 8 km
1000 à 3000 ft
1500m à 5 km
500 à 1000 ft
800 à 1500m
200 à 500 ft
< 800m
< 200 ft
Symboles :   Orages  Brouillard  Fortes neiges  Fortes précipitations  Vent > 20 kt
SIGMETs :   Divers  Orages  Givrage  Turbulence  Onde Orograph.  Cendres Volcan.







- Altitude de l'aérodrome : 1325 ft
- Code IATA : EBU
- Voir les cartes d'approche


LFMH - St-Etienne Boutheon

DERNIER METAR :
  • 231600Z AUTO VRB04KT CAVOK 25/12 Q1017 NOSIG

METARs EXPIRÉS :
  • 231530Z AUTO 32005KT 230V040 CAVOK 26/11 Q1018 NOSIG
  • 231500Z AUTO VRB03KT CAVOK 25/12 Q1018 NOSIG
  • 231430Z AUTO 32005KT 270V060 CAVOK 25/12 Q1018 NOSIG
  • 231400Z AUTO 32006KT 270V010 CAVOK 25/12 Q1019 NOSIG
  • 231330Z AUTO VRB04KT 9999 FEW056 25/12 Q1019 NOSIG

TAF TAF LFMH
Valide du 23 à 15h jusqu'au 24 à 15h UTC


231400Z 2315/2415 VRB03KT CAVOK
PROB40
TEMPO 2315/2324 NSC
PROB40
TEMPO 2400/2409 4000 RA
TEMPO 2410/2415 32012G22KT
ATIS : +33 4 77 36 17 51
Pas de NOTAMs connus pour ce terrain.
1 SIGMET publié pour la FIR Marseille (LFMM) :
 
Orages noyés dans la masse
LFMM SIGMET 1 VALID 231600/231800 LFPW
LFMM MARSEILLE FIR/UIR EMBD TS OBS WI N4200 E00415 - N4215 E00230 - N4245 E00230 - N4230 E00430 TOP FL360 MOV NE 20KT NC=



MET'MAP, la Météo Aéronautique d'un coup d'oeil ! - Copyright ORBIFLY Décembre 2007 - Disclaimer

ORBIFLY MET'MAP TEAM :

Programmation & Développement : Alexandra Zaïnal
Conception & Développement : Baudouin d'Aumeries
Co-Programmation & Développement : Marc-Olivier Méhu
Soutien technique & logistique : Manuel Goepfert

Contact : metmap@orbifly.com




SOURCES & CREDITS :

   NOAA